ěÝzenÝ letovÚho provozu ╚eskÚ republiky
Letiste: LKKB Aktualizace: 24.09.2023 03:59:38  UTC
 METAR LKKB 24.09. 04:00 ...
METAR LKKB 240400Z 20004KT CAVOK 07/06 Q1024 NOSIG RMK BLU BLU=
 TAF LKKB 23.09. 23:00 RRA
TAF COR LKKB 232300Z 2400/2500 26006KT CAVOK      BECMG 2408/2410 34006KT BKN035      BECMG 2415/2417 VRB02KT CAVOK      BECMG 2422/2500 5000 BR NSC=